Time;durP1;ratioP1;P1;durP2;ratioP2;P2;SDS_P1;SDS_P2;PMS_P1;PMS_P2;Temp;Humidity;BMP_temperature;BMP_pressure;BME280_temperature;BME280_humidity;BME280_pressure;Samples;Min_cycle;Max_cycle;Signal;HPM_P1;HPM_P2
2021/11/08 00:00:29;;;;;;;;;;;;;;;29.16;62.70;100771.28;4997335;27;70285;-35
2021/11/08 00:03:01;;;;;;;;;;;;;;;29.36;64.12;100801.81;4983596;27;65615;-35
2021/11/08 00:05:40;;;;;;;;;;;;;;;29.44;64.44;100803.44;4996037;27;70386;-35
2021/11/08 00:08:16;;;;;;;;;;;;;;;29.52;65.19;100805.06;4991333;28;66400;-35
2021/11/08 00:10:47;;;;;;;;;;;;;;;29.56;66.56;100806.28;4996212;27;70092;-36
2021/11/08 00:13:28;;;;;;;;;;;;;;;29.62;66.50;100809.00;4983847;28;65596;-35
2021/11/08 00:19:06;;;;;;;;;;;;;;;29.70;68.56;100826.03;5001631;27;65523;-34
2021/11/08 00:21:43;;;;;;;;;;;;;;;29.73;68.97;100826.47;4995991;27;70473;-35
2021/11/08 00:24:20;;;;;;;;;;;;;;;29.78;69.10;100834.75;4997559;27;66083;-35
2021/11/08 00:26:52;;;;;;;;;;;;;;;29.72;69.52;100824.78;5013942;27;70745;-36
2021/11/08 00:29:44;;;;;;;;;;;;;;;29.89;69.67;100851.34;4995532;27;66157;-35
2021/11/08 00:32:29;;;;;;;;;;;;;;;29.96;70.14;100854.84;4993792;27;70324;-35
2021/11/08 00:35:55;;;;;;;;;;;;;;;29.90;67.77;100858.44;4995403;27;65370;-35
2021/11/08 00:38:38;;;;;;;;;;;;;;;29.92;66.66;100861.72;4995876;27;69566;-35
2021/11/08 00:41:36;;;;;;;;;;;;;;;29.96;65.85;100869.19;4994500;27;65611;-34
2021/11/08 00:44:32;;;;;;;;;;;;;;;29.99;65.22;100874.19;4983394;28;70062;-35
2021/11/08 00:47:25;;;;;;;;;;;;;;;30.03;64.70;100870.03;5001416;27;66963;-36
2021/11/08 00:50:18;;;;;;;;;;;;;;;30.06;64.30;100876.84;4993450;28;69605;-35
2021/11/08 00:53:51;;;;;;;;;;;;;;;30.10;64.38;100879.97;5056882;28;65848;-34
2021/11/08 00:57:20;;;;;;;;;;;;;;;30.13;63.84;100880.38;5070425;27;70644;-34
2021/11/08 01:00:03;;;;;;;;;;;;;;;30.15;63.55;100883.69;5074091;28;66147;-35
2021/11/08 01:03:04;;;;;;;;;;;;;;;30.16;63.60;100877.22;5066810;28;70033;-35
2021/11/08 01:06:02;;;;;;;;;;;;;;;30.20;63.20;100891.16;5049987;28;65548;-34
2021/11/08 01:09:03;;;;;;;;;;;;;;;30.22;62.86;100887.22;5056560;28;69573;-35
2021/11/08 01:12:34;;;;;;;;;;;;;;;30.25;62.76;100889.47;5006222;28;66754;-35
2021/11/08 01:15:22;;;;;;;;;;;;;;;30.27;63.01;100898.22;5007246;28;68940;-35
2021/11/08 01:18:10;;;;;;;;;;;;;;;30.28;62.54;100897.19;5032656;28;66990;-35
2021/11/08 01:21:09;;;;;;;;;;;;;;;30.32;62.76;100894.06;5030193;28;69481;-34
2021/11/08 01:24:05;;;;;;;;;;;;;;;30.32;62.39;100889.47;5012963;28;66084;-35
2021/11/08 01:27:07;;;;;;;;;;;;;;;30.36;62.36;100897.97;5014810;28;69895;-35
2021/11/08 01:30:00;;;;;;;;;;;;;;;30.38;61.96;100901.31;5002392;28;66349;-35
2021/11/08 01:33:07;;;;;;;;;;;;;;;30.39;62.34;100898.34;5028190;28;70330;-35
2021/11/08 01:36:10;;;;;;;;;;;;;;;30.42;62.21;100910.63;4995308;28;65396;-35
2021/11/08 01:39:25;;;;;;;;;;;;;;;30.44;62.25;100919.38;5009697;28;69937;-34
2021/11/08 01:42:25;;;;;;;;;;;;;;;30.45;61.80;100916.47;5019961;28;66183;-35
2021/11/08 01:45:16;;;;;;;;;;;;;;;30.48;61.55;100926.03;5030902;28;69918;-34
2021/11/08 01:48:16;;;;;;;;;;;;;;;30.49;61.40;100927.69;5026882;28;65543;-34
2021/11/08 01:51:16;;;;;;;;;;;;;;;30.51;61.29;100925.59;5068891;28;70378;-35
2021/11/08 01:53:58;;;;;;;;;;;;;;;30.54;61.83;100921.63;5053803;28;67033;-35
2021/11/08 01:56:57;;;;;;;;;;;;;;;30.57;61.40;100922.00;4998990;28;71211;-35
2021/11/08 01:59:45;;;;;;;;;;;;;;;30.58;61.51;100920.13;4989612;28;65280;-34
2021/11/08 02:02:51;;;;;;;;;;;;;;;30.46;61.44;100895.63;4979353;28;69652;-34
2021/11/08 02:05:45;;;;;;;;;;;;;;;30.62;61.73;100922.19;4977301;27;66432;-34
2021/11/08 02:08:31;;;;;;;;;;;;;;;30.65;61.30;100929.88;5001326;27;70286;-33
2021/11/08 02:11:22;;;;;;;;;;;;;;;30.66;61.35;100923.41;4990023;28;66614;-35
2021/11/08 02:14:14;;;;;;;;;;;;;;;30.68;61.59;100929.44;5010571;27;69435;-34
2021/11/08 02:17:02;;;;;;;;;;;;;;;30.71;61.32;100937.13;5014592;27;66821;-34
2021/11/08 02:20:14;;;;;;;;;;;;;;;30.73;61.18;100935.03;5001091;27;70641;-35
2021/11/08 02:23:10;;;;;;;;;;;;;;;30.75;61.31;100939.41;4992061;27;65613;-35
2021/11/08 02:26:17;;;;;;;;;;;;;;;30.77;60.96;100935.44;4959853;28;69798;-35
2021/11/08 02:29:06;;;;;;;;;;;;;;;30.79;61.03;100937.94;4941885;28;67026;-35
2021/11/08 02:32:13;;;;;;;;;;;;;;;30.82;61.31;100932.09;4960714;28;70593;-34
2021/11/08 02:35:24;;;;;;;;;;;;;;;30.84;61.33;100919.16;4968753;28;66710;-35
2021/11/08 02:38:24;;;;;;;;;;;;;;;30.86;60.93;100930.59;4977910;28;71052;-34
2021/11/08 02:41:18;;;;;;;;;;;;;;;30.89;61.03;100911.19;4946594;28;65647;-33
2021/11/08 02:44:12;;;;;;;;;;;;;;;30.92;60.66;100917.03;4969966;28;70030;-34
2021/11/08 02:46:58;;;;;;;;;;;;;;;30.94;60.53;100917.63;4936231;28;66905;-34
2021/11/08 02:49:50;;;;;;;;;;;;;;;30.98;61.21;100923.44;4963597;28;69171;-34
2021/11/08 02:52:36;;;;;;;;;;;;;;;31.00;60.74;100921.31;4965210;28;66643;-34
2021/11/08 02:55:23;;;;;;;;;;;;;;;31.02;60.41;100913.81;4967891;28;69964;-34
2021/11/08 02:58:14;;;;;;;;;;;;;;;31.05;60.38;100909.84;4970606;28;66340;-34
2021/11/08 03:01:02;;;;;;;;;;;;;;;31.08;60.49;100915.63;4949417;28;69162;-34
2021/11/08 03:04:01;;;;;;;;;;;;;;;31.09;60.27;100906.47;5000352;27;66560;-35
2021/11/08 03:06:33;;;;;;;;;;;;;;;31.12;60.74;100902.47;4992344;27;69255;-35
2021/11/08 03:09:48;;;;;;;;;;;;;;;31.15;60.51;100900.16;4974131;28;66136;-35
2021/11/08 03:12:44;;;;;;;;;;;;;;;31.20;60.15;100890.53;4996228;27;70077;-35
2021/11/08 03:18:33;;;;;;;;;;;;;;;31.25;59.87;100887.97;4990839;27;69677;-34
2021/11/08 03:21:18;;;;;;;;;;;;;;;31.28;60.15;100882.13;4991396;27;65911;-34
2021/11/08 03:23:56;;;;;;;;;;;;;;;31.30;60.14;100885.44;4978860;28;70562;-35
2021/11/08 03:26:51;;;;;;;;;;;;;;;31.34;60.39;100881.22;4992613;28;66590;-35
2021/11/08 03:29:30;;;;;;;;;;;;;;;31.37;59.91;100880.78;4990670;28;70495;-35
2021/11/08 03:32:10;;;;;;;;;;;;;;;31.39;59.70;100868.69;4995430;27;67016;-35
2021/11/08 03:37:37;;;;;;;;;;;;;;;31.45;59.71;100855.28;4992620;28;66023;-35
2021/11/08 03:40:33;;;;;;;;;;;;;;;31.48;59.77;100846.69;4993881;27;70382;-36
2021/11/08 03:43:20;;;;;;;;;;;;;;;31.51;59.92;100847.09;5002271;28;66458;-35
2021/11/08 03:45:55;;;;;;;;;;;;;;;31.55;59.85;100840.16;5002116;27;68980;-36
2021/11/08 03:48:30;;;;;;;;;;;;;;;31.58;59.84;100831.56;4998939;27;65409;-35
2021/11/08 03:51:17;;;;;;;;;;;;;;;31.61;59.62;100838.41;5002753;27;69422;-35
2021/11/08 03:54:00;;;;;;;;;;;;;;;31.65;59.15;100839.66;4995941;27;67151;-35
2021/11/08 03:56:36;;;;;;;;;;;;;;;31.67;59.26;100837.50;4992728;27;70103;-35
2021/11/08 03:59:09;;;;;;;;;;;;;;;31.71;59.75;100837.91;4992445;27;67395;-34
2021/11/08 04:01:41;;;;;;;;;;;;;;;31.73;59.73;100836.63;4992060;27;69749;-35
2021/11/08 04:04:14;;;;;;;;;;;;;;;31.74;59.95;100829.31;4996929;27;66181;-35
2021/11/08 04:06:48;;;;;;;;;;;;;;;31.76;59.75;100838.03;4980396;28;70052;-35
2021/11/08 04:09:18;;;;;;;;;;;;;;;31.76;59.53;100836.16;4988918;27;66325;-35
2021/11/08 04:11:54;;;;;;;;;;;;;;;31.78;59.44;100825.06;4987532;27;69245;-35
2021/11/08 04:14:38;;;;;;;;;;;;;;;31.80;59.63;100820.25;4999035;27;66928;-34
2021/11/08 04:17:16;;;;;;;;;;;;;;;31.81;59.45;100819.19;4993167;27;69848;-34
2021/11/08 04:19:52;;;;;;;;;;;;;;;31.82;59.19;100812.72;4993128;27;66420;-35
2021/11/08 04:22:23;;;;;;;;;;;;;;;31.85;59.34;100806.84;4994320;28;70261;-34
2021/11/08 04:24:54;;;;;;;;;;;;;;;31.87;59.28;100803.88;4993890;28;66488;-34
2021/11/08 04:27:26;;;;;;;;;;;;;;;31.87;59.64;100793.84;4992945;27;70683;-34
2021/11/08 04:30:01;;;;;;;;;;;;;;;31.89;59.42;100791.75;4993286;28;66504;-35
2021/11/08 04:32:36;;;;;;;;;;;;;;;31.92;59.53;100785.06;4993746;28;69981;-39
2021/11/08 04:35:20;;;;;;;;;;;;;;;31.93;59.46;100782.16;4995046;27;65640;-35
2021/11/08 04:38:04;;;;;;;;;;;;;;;31.79;59.40;100754.34;4993067;28;69040;-35
2021/11/08 05:22:54;;;;;;;;;;;;;;;32.27;58.71;100707.31;4991465;28;69696;-35
2021/11/08 05:31:06;;;;;;;;;;;;;;;32.35;58.53;100681.72;4993104;28;66320;-34
2021/11/08 05:33:36;;;;;;;;;;;;;;;32.37;58.89;100685.00;4990532;28;71040;-35
2021/11/08 05:36:06;;;;;;;;;;;;;;;32.39;58.81;100682.88;4993465;27;66005;-35
2021/11/08 05:38:37;;;;;;;;;;;;;;;32.40;59.04;100676.41;5006310;27;69256;-34
2021/11/08 05:41:08;;;;;;;;;;;;;;;32.42;58.84;100666.13;4991361;27;66891;-35
2021/11/08 05:43:39;;;;;;;;;;;;;;;32.45;58.89;100662.94;4991652;28;69914;-36
2021/11/08 05:46:10;;;;;;;;;;;;;;;32.43;58.69;100651.50;4991418;27;66681;-34
2021/11/08 05:48:46;;;;;;;;;;;;;;;32.51;58.79;100663.91;4989625;27;69949;-36
2021/11/08 05:51:16;;;;;;;;;;;;;;;32.53;58.60;100650.94;4994442;27;66173;-35
2021/11/08 05:53:47;;;;;;;;;;;;;;;32.53;58.85;100655.53;4976915;27;69939;-34
2021/11/08 05:56:29;;;;;;;;;;;;;;;32.53;58.60;100650.09;4992028;28;66374;-35
2021/11/08 06:50:26;;;;;;;;;;;;;;;33.04;58.20;100548.81;4984993;28;70556;-35
2021/11/08 06:53:07;;;;;;;;;;;;;;;33.08;58.02;100543.72;4977910;28;65809;-35
2021/11/08 06:55:42;;;;;;;;;;;;;;;33.12;58.00;100533.97;4992108;28;69988;-35
2021/11/08 06:58:16;;;;;;;;;;;;;;;33.15;57.97;100539.78;4996475;27;66216;-34
2021/11/08 07:00:50;;;;;;;;;;;;;;;33.19;57.78;100534.66;4996637;27;69954;-35
2021/11/08 07:03:25;;;;;;;;;;;;;;;33.23;57.95;100541.25;4990016;28;65713;-35
2021/11/08 07:06:09;;;;;;;;;;;;;;;33.28;57.58;100527.75;4998657;27;70102;-35
2021/11/08 07:08:57;;;;;;;;;;;;;;;33.31;57.80;100527.25;4972044;27;64988;-35
2021/11/08 07:11:35;;;;;;;;;;;;;;;33.34;57.80;100518.59;4990232;28;70245;-34
2021/11/08 07:14:20;;;;;;;;;;;;;;;33.38;57.78;100527.94;5000524;27;65956;-35
2021/11/08 07:17:09;;;;;;;;;;;;;;;33.42;57.73;100517.38;4942425;28;69863;-35
2021/11/08 07:19:45;;;;;;;;;;;;;;;33.46;57.44;100510.41;5003959;27;66222;-34
2021/11/08 07:22:34;;;;;;;;;;;;;;;33.50;57.36;100508.00;4978093;28;70012;-36
2021/11/08 07:25:11;;;;;;;;;;;;;;;33.55;57.43;100506.22;4989673;27;66481;-33
2021/11/08 07:28:15;;;;;;;;;;;;;;;33.59;57.24;100506.53;4988115;27;69798;-35
2021/11/08 07:31:00;;;;;;;;;;;;;;;33.65;56.95;100497.38;4984539;27;66650;-35
2021/11/08 07:33:51;;;;;;;;;;;;;;;33.70;56.70;100492.03;4993875;27;70596;-35
2021/11/08 07:36:48;;;;;;;;;;;;;;;33.74;56.81;100503.22;4975791;28;65782;-34
2021/11/08 07:39:31;;;;;;;;;;;;;;;33.78;57.00;100496.22;4982683;28;68970;-34
2021/11/08 07:42:23;;;;;;;;;;;;;;;33.84;56.52;100497.13;4979140;28;66655;-34
2021/11/08 07:44:58;;;;;;;;;;;;;;;33.89;56.57;100506.19;5004453;28;70321;-35
2021/11/08 07:47:55;;;;;;;;;;;;;;;33.95;55.96;100493.47;4976945;28;66819;-35
2021/11/08 07:50:39;;;;;;;;;;;;;;;34.00;56.01;100502.53;4953361;28;70472;-35
2021/11/08 07:53:37;;;;;;;;;;;;;;;34.06;55.77;100499.91;4949426;28;65575;-35
2021/11/08 07:56:22;;;;;;;;;;;;;;;34.09;56.17;100502.94;4954033;28;70200;-35
2021/11/08 07:59:08;;;;;;;;;;;;;;;34.16;55.79;100490.00;4977527;28;65899;-35
2021/11/08 08:01:59;;;;;;;;;;;;;;;34.21;55.52;100490.06;4954142;28;70780;-35
2021/11/08 08:04:46;;;;;;;;;;;;;;;34.26;55.30;100497.47;4950392;28;66618;-35
2021/11/08 08:07:23;;;;;;;;;;;;;;;34.30;55.13;100487.72;4945779;28;70065;-36
2021/11/08 08:10:11;;;;;;;;;;;;;;;34.36;55.22;100483.16;4951436;28;66919;-35
2021/11/08 08:13:01;;;;;;;;;;;;;;;34.41;55.35;100485.97;4950263;28;69325;-35
2021/11/08 08:15:40;;;;;;;;;;;;;;;34.47;54.95;100484.94;4957213;28;65452;-35
2021/11/08 08:18:30;;;;;;;;;;;;;;;34.53;54.53;100483.91;4950874;28;70043;-35
2021/11/08 08:21:32;;;;;;;;;;;;;;;34.59;54.64;100482.91;4943425;28;66025;-36
2021/11/08 08:24:17;;;;;;;;;;;;;;;34.66;54.67;100472.66;4959126;28;69461;-35
2021/11/08 08:27:03;;;;;;;;;;;;;;;34.69;54.15;100472.13;4949795;28;66594;-35
2021/11/08 08:29:40;;;;;;;;;;;;;;;34.74;53.77;100467.81;4999287;27;69238;-35
2021/11/08 08:32:20;;;;;;;;;;;;;;;34.81;54.26;100474.72;4977340;27;67330;-35
2021/11/08 08:35:21;;;;;;;;;;;;;;;34.86;53.93;100479.41;4993968;28;70167;-36
2021/11/08 08:37:58;;;;;;;;;;;;;;;34.91;53.51;100479.44;4993682;27;65751;-35
2021/11/08 08:40:44;;;;;;;;;;;;;;;34.96;53.39;100476.75;4994749;28;70093;-35
2021/11/08 08:43:24;;;;;;;;;;;;;;;35.01;53.31;100478.72;4993226;28;66560;-35
2021/11/08 08:45:59;;;;;;;;;;;;;;;35.06;53.41;100478.78;4978968;28;69405;-35
2021/11/08 08:48:37;;;;;;;;;;;;;;;35.09;53.28;100476.38;4993565;27;66707;-35
2021/11/08 08:51:15;;;;;;;;;;;;;;;35.14;52.75;100486.50;4983866;28;69098;-35
2021/11/08 08:53:52;;;;;;;;;;;;;;;35.20;53.40;100481.91;5002623;27;65506;-35
2021/11/08 08:56:27;;;;;;;;;;;;;;;35.23;52.63;100475.94;4991931;27;70195;-36
2021/11/08 08:59:11;;;;;;;;;;;;;;;35.25;52.31;100476.50;4990796;28;66595;-34
2021/11/08 09:01:43;;;;;;;;;;;;;;;35.28;52.22;100476.81;4975377;28;70692;-35
2021/11/08 09:04:18;;;;;;;;;;;;;;;35.31;53.18;100470.00;4994311;27;66833;-35
2021/11/08 09:06:49;;;;;;;;;;;;;;;35.33;52.05;100474.13;4993533;28;70496;-35
2021/11/08 09:09:26;;;;;;;;;;;;;;;35.35;52.23;100491.06;4987869;28;66246;-34
2021/11/08 09:11:59;;;;;;;;;;;;;;;35.37;52.46;100488.06;4991790;28;69898;-34
2021/11/08 09:14:38;;;;;;;;;;;;;;;35.40;52.17;100495.72;4992346;27;65859;-34
2021/11/08 09:17:21;;;;;;;;;;;;;;;35.43;52.07;100497.91;4991577;28;69350;-35
2021/11/08 09:20:07;;;;;;;;;;;;;;;35.43;51.93;100497.91;4993779;27;66458;-35
2021/11/08 09:22:50;;;;;;;;;;;;;;;35.45;52.01;100503.13;4990911;28;70517;-34
2021/11/08 09:25:25;;;;;;;;;;;;;;;35.45;52.17;100501.22;4977765;28;65978;-34
2021/11/08 09:27:59;;;;;;;;;;;;;;;35.46;52.05;100505.56;4991897;28;69510;-35
2021/11/08 09:30:33;;;;;;;;;;;;;;;35.47;51.94;100512.69;4992632;28;65686;-35
2021/11/08 09:33:05;;;;;;;;;;;;;;;35.46;51.38;100496.56;4995441;28;69041;-35
2021/11/08 09:35:44;;;;;;;;;;;;;;;35.48;51.70;100495.22;4992115;27;66268;-35
2021/11/08 09:38:15;;;;;;;;;;;;;;;35.47;51.41;100504.50;4995361;27;69948;-34
2021/11/08 09:40:45;;;;;;;;;;;;;;;35.48;51.53;100506.16;4993869;27;67088;-36
2021/11/08 09:43:19;;;;;;;;;;;;;;;35.49;51.57;100506.97;4995031;27;70365;-35
2021/11/08 09:45:50;;;;;;;;;;;;;;;35.48;51.63;100513.50;4992907;27;66811;-36
2021/11/08 09:48:21;;;;;;;;;;;;;;;35.48;51.36;100516.25;4993623;28;69286;-36
2021/11/08 09:50:52;;;;;;;;;;;;;;;35.47;51.46;100520.88;4997316;27;66493;-36
2021/11/08 09:53:23;;;;;;;;;;;;;;;35.48;51.87;100524.41;4995702;28;69167;-36
2021/11/08 09:55:59;;;;;;;;;;;;;;;35.46;52.03;100521.94;4992336;27;65955;-35
2021/11/08 09:58:48;;;;;;;;;;;;;;;35.45;51.42;100523.03;4995622;28;69081;-35
2021/11/08 10:01:33;;;;;;;;;;;;;;;35.43;51.53;100530.66;4986126;27;64979;-36
2021/11/08 10:04:06;;;;;;;;;;;;;;;35.42;51.89;100534.47;4997435;27;69785;-35
2021/11/08 10:06:37;;;;;;;;;;;;;;;35.40;51.46;100539.34;4991022;27;66247;-35
2021/11/08 10:09:10;;;;;;;;;;;;;;;35.38;51.97;100546.97;4986767;27;70085;-35
2021/11/08 10:11:41;;;;;;;;;;;;;;;35.36;51.53;100565.50;4992553;27;66931;-35
2021/11/08 10:14:13;;;;;;;;;;;;;;;35.35;51.91;100563.84;4991782;28;71518;-36
2021/11/08 10:16:46;;;;;;;;;;;;;;;35.34;51.66;100567.66;4992711;27;65543;-35
2021/11/08 10:19:23;;;;;;;;;;;;;;;35.31;51.67;100566.28;4990181;27;70396;-35
2021/11/08 10:21:56;;;;;;;;;;;;;;;35.29;51.83;100573.06;5000381;27;66932;-35
2021/11/08 10:24:29;;;;;;;;;;;;;;;35.27;52.07;100581.53;4992460;27;69723;-35
2021/11/08 10:27:06;;;;;;;;;;;;;;;35.25;51.89;100593.75;4986897;27;67052;-35
2021/11/08 10:29:41;;;;;;;;;;;;;;;35.23;52.70;100606.81;5000157;27;70903;-34
2021/11/08 10:32:15;;;;;;;;;;;;;;;35.20;53.72;100612.78;4991775;27;65751;-34
2021/11/08 10:34:56;;;;;;;;;;;;;;;35.17;53.55;100626.94;4987021;27;69324;-35
2021/11/08 10:37:27;;;;;;;;;;;;;;;35.03;53.91;100619.13;4973383;27;65910;-34
2021/11/08 10:39:59;;;;;;;;;;;;;;;35.10;54.53;100641.59;4999048;27;69957;-35
2021/11/08 10:42:55;;;;;;;;;;;;;;;34.81;54.90;100659.19;5052790;27;65626;-35
2021/11/08 10:45:27;;;;;;;;;;;;;;;34.53;55.97;100673.75;4993269;27;70586;-35
2021/11/08 10:48:01;;;;;;;;;;;;;;;34.34;56.83;100676.72;5005253;27;65333;-35
2021/11/08 10:50:41;;;;;;;;;;;;;;;34.20;57.68;100681.69;5012871;27;70736;-35
2021/11/08 10:53:12;;;;;;;;;;;;;;;34.13;58.19;100691.94;4987903;27;69496;-36
2021/11/08 10:55:47;;;;;;;;;;;;;;;34.12;58.41;100701.16;5014848;27;70344;-36
2021/11/08 10:58:20;;;;;;;;;;;;;;;34.02;59.26;100698.25;5012885;27;66523;-35
2021/11/08 11:00:51;;;;;;;;;;;;;;;33.93;59.61;100695.06;5001919;27;70141;-36
2021/11/08 11:03:25;;;;;;;;;;;;;;;33.87;60.29;100701.50;5047381;27;65580;-37
2021/11/08 11:06:03;;;;;;;;;;;;;;;33.82;60.73;100701.41;5048908;27;69911;-36
2021/11/08 11:08:46;;;;;;;;;;;;;;;33.87;60.49;100719.72;4997717;27;66641;-36
2021/11/08 11:11:23;;;;;;;;;;;;;;;33.88;60.76;100721.38;5018535;27;70645;-36
2021/11/08 11:13:57;;;;;;;;;;;;;;;33.86;61.07;100718.09;4999139;27;66003;-36
2021/11/08 11:16:40;;;;;;;;;;;;;;;33.84;60.92;100725.66;5034068;27;70243;-36
2021/11/08 11:19:12;;;;;;;;;;;;;;;33.81;60.83;100727.81;5031241;27;65483;-36
2021/11/08 11:21:57;;;;;;;;;;;;;;;33.78;61.35;100736.44;5009452;27;69558;-35
2021/11/08 11:24:43;;;;;;;;;;;;;;;33.77;61.26;100745.69;5009815;27;69480;-36
2021/11/08 11:27:27;;;;;;;;;;;;;;;33.72;61.50;100756.47;5012628;27;70119;-35
2021/11/08 11:30:18;;;;;;;;;;;;;;;33.70;61.81;100766.75;5000822;27;66266;-37
2021/11/08 11:33:02;;;;;;;;;;;;;;;33.68;62.13;100759.91;5021332;27;70397;-36
2021/11/08 11:35:33;;;;;;;;;;;;;;;33.65;62.02;100772.09;5032224;27;66402;-36
2021/11/08 11:38:10;;;;;;;;;;;;;;;33.61;62.12;100781.00;5025764;27;70487;-36
2021/11/08 11:40:43;;;;;;;;;;;;;;;33.58;62.21;100783.13;5022338;27;66847;-36
2021/11/08 11:43:15;;;;;;;;;;;;;;;33.56;62.41;100779.00;5021787;27;70448;-35
2021/11/08 11:45:45;;;;;;;;;;;;;;;33.55;62.57;100777.34;5007275;27;66742;-38
2021/11/08 11:48:17;;;;;;;;;;;;;;;33.53;62.59;100780.31;5003106;27;69542;-37
2021/11/08 11:51:09;;;;;;;;;;;;;;;33.50;62.67;100788.91;5005805;27;65966;-36
2021/11/08 11:53:41;;;;;;;;;;;;;;;33.47;62.91;100791.31;4991423;27;69657;-36
2021/11/08 11:56:13;;;;;;;;;;;;;;;33.45;63.00;100798.88;4989834;27;66682;-36
2021/11/08 11:58:46;;;;;;;;;;;;;;;33.44;63.38;100794.50;4993158;27;70193;-37
2021/11/08 12:01:26;;;;;;;;;;;;;;;33.32;63.89;100794.50;4997781;27;66545;-37
2021/11/08 12:04:18;;;;;;;;;;;;;;;33.30;64.55;100802.09;5007810;27;70542;-37
2021/11/08 12:06:55;;;;;;;;;;;;;;;33.28;64.00;100802.31;5031927;27;66084;-37
2021/11/08 12:09:34;;;;;;;;;;;;;;;33.25;64.10;100805.50;4988777;27;71000;-35
2021/11/08 12:12:22;;;;;;;;;;;;;;;33.23;64.03;100806.81;4998126;27;66382;-36
2021/11/08 12:15:08;;;;;;;;;;;;;;;33.24;63.63;100824.78;5029118;27;72375;-36
2021/11/08 12:17:44;;;;;;;;;;;;;;;33.20;63.54;100819.00;4990683;28;67431;-35
2021/11/08 12:20:27;;;;;;;;;;;;;;;33.22;63.03;100827.75;5011118;27;70364;-35
2021/11/08 12:23:12;;;;;;;;;;;;;;;33.25;62.20;100832.69;5016109;27;66880;-36
2021/11/08 12:25:58;;;;;;;;;;;;;;;33.25;62.19;100821.00;4999617;27;69461;-37
2021/11/08 12:28:35;;;;;;;;;;;;;;;33.24;62.13;100814.75;5010803;27;66965;-35
2021/11/08 12:31:25;;;;;;;;;;;;;;;33.23;62.07;100832.09;5035578;27;70493;-35
2021/11/08 12:34:22;;;;;;;;;;;;;;;33.25;62.29;100827.25;4999815;27;66184;-36
2021/11/08 12:37:05;;;;;;;;;;;;;;;33.16;61.37;100839.56;4988354;27;70588;-36
2021/11/08 12:40:10;;;;;;;;;;;;;;;33.12;61.34;100839.19;4994501;27;65375;-36
2021/11/08 12:42:52;;;;;;;;;;;;;;;33.15;61.38;100843.34;4992158;27;70696;-36
2021/11/08 12:45:37;;;;;;;;;;;;;;;33.13;61.23;100850.91;4990090;27;66912;-36
2021/11/08 12:48:37;;;;;;;;;;;;;;;33.05;61.18;100854.00;4994512;28;70625;-35
2021/11/08 12:51:16;;;;;;;;;;;;;;;32.87;59.01;100858.41;4987233;27;66562;-34
2021/11/08 12:54:06;;;;;;;;;;;;;;;32.62;57.20;100857.78;4981041;27;69892;-35
2021/11/08 12:56:54;;;;;;;;;;;;;;;32.41;56.58;100849.09;4982082;27;66600;-35
2021/11/08 12:59:50;;;;;;;;;;;;;;;32.23;55.49;100850.00;4975700;28;70082;-36
2021/11/08 13:02:56;;;;;;;;;;;;;;;32.03;53.88;100862.97;5042389;27;67034;-36
2021/11/08 13:06:01;;;;;;;;;;;;;;;31.87;53.28;100864.38;4995486;27;70745;-35
2021/11/08 13:09:04;;;;;;;;;;;;;;;31.78;52.25;100860.34;5006984;27;66605;-36
2021/11/08 13:12:01;;;;;;;;;;;;;;;31.64;52.15;100861.56;4960997;28;69448;-36
2021/11/08 13:15:05;;;;;;;;;;;;;;;31.59;54.99;100862.22;4989711;27;65914;-35
2021/11/08 13:18:00;;;;;;;;;;;;;;;31.51;53.37;100860.66;4991102;27;69188;-35
2021/11/08 13:21:03;;;;;;;;;;;;;;;31.37;52.56;100859.97;4984438;27;66785;-37
2021/11/08 13:23:53;;;;;;;;;;;;;;;31.30;53.12;100861.03;4999659;27;69851;-36
2021/11/08 13:26:48;;;;;;;;;;;;;;;31.33;53.25;100857.88;4992956;27;65013;-36
2021/11/08 13:29:30;;;;;;;;;;;;;;;31.29;52.70;100853.97;4997637;27;69866;-36
2021/11/08 13:32:17;;;;;;;;;;;;;;;31.24;52.82;100853.81;4986230;27;65964;-37
2021/11/08 13:35:24;;;;;;;;;;;;;;;31.23;52.41;100846.72;4984585;27;69325;-37
2021/11/08 13:38:14;;;;;;;;;;;;;;;31.24;52.20;100848.41;4999187;27;65744;-37
2021/11/08 13:41:08;;;;;;;;;;;;;;;31.21;52.25;100843.44;4997790;27;69869;-36
2021/11/08 13:44:05;;;;;;;;;;;;;;;31.20;51.35;100841.75;5006522;27;67480;-35
2021/11/08 13:46:54;;;;;;;;;;;;;;;31.10;51.94;100848.50;5026238;27;70114;-36
2021/11/08 13:50:01;;;;;;;;;;;;;;;31.02;52.15;100851.50;5038932;27;66585;-36
2021/11/08 13:52:56;;;;;;;;;;;;;;;31.01;52.22;100866.13;5048597;27;70143;-36
2021/11/08 13:55:50;;;;;;;;;;;;;;;30.97;52.79;100856.75;4992128;27;65024;-37
2021/11/08 13:58:53;;;;;;;;;;;;;;;31.02;52.56;100867.75;5004103;27;64018;-36
2021/11/08 14:01:43;;;;;;;;;;;;;;;30.99;52.00;100872.81;5039625;27;66221;-36
2021/11/08 14:04:48;;;;;;;;;;;;;;;30.97;52.79;100878.44;5007945;27;70136;-36
2021/11/08 14:07:41;;;;;;;;;;;;;;;31.00;52.22;100877.97;4997234;27;65437;-36
2021/11/08 14:10:51;;;;;;;;;;;;;;;30.99;51.71;100884.47;5003932;27;71910;-37
2021/11/08 14:13:59;;;;;;;;;;;;;;;30.99;51.54;100889.06;5029368;27;66287;-36
2021/11/08 14:16:37;;;;;;;;;;;;;;;30.99;50.74;100895.28;4998047;27;70646;-36
2021/11/08 14:19:19;;;;;;;;;;;;;;;30.96;50.14;100886.78;5038031;27;67342;-36
2021/11/08 14:22:02;;;;;;;;;;;;;;;30.92;50.16;100889.94;5020412;27;70796;-36
2021/11/08 14:24:49;;;;;;;;;;;;;;;30.91;49.64;100890.16;5011342;27;66315;-35
2021/11/08 14:27:27;;;;;;;;;;;;;;;30.87;49.92;100883.50;5008982;27;69926;-35
2021/11/08 14:30:15;;;;;;;;;;;;;;;30.84;49.13;100887.50;4997532;27;65450;-35
2021/11/08 14:32:49;;;;;;;;;;;;;;;30.82;48.90;100880.66;5014455;27;70192;-36
2021/11/08 14:35:26;;;;;;;;;;;;;;;30.80;48.58;100885.44;4996959;27;66613;-36
2021/11/08 14:38:13;;;;;;;;;;;;;;;30.77;49.03;100896.69;5027014;27;69805;-37
2021/11/08 14:40:56;;;;;;;;;;;;;;;30.75;48.52;100890.66;4988582;27;65767;-36
2021/11/08 14:43:30;;;;;;;;;;;;;;;30.71;48.56;100899.22;4996329;27;69763;-36
2021/11/08 14:46:06;;;;;;;;;;;;;;;30.71;48.06;100909.22;4997993;27;65598;-36
2021/11/08 14:49:03;;;;;;;;;;;;;;;30.68;47.83;100905.06;5001246;27;69873;-36
2021/11/08 14:51:45;;;;;;;;;;;;;;;30.62;47.76;100905.94;5022186;27;66644;-36
2021/11/08 14:54:16;;;;;;;;;;;;;;;30.60;47.68;100908.03;5025722;27;70135;-36
2021/11/08 14:56:54;;;;;;;;;;;;;;;30.60;47.35;100908.03;4996590;27;66438;-36
2021/11/08 14:59:27;;;;;;;;;;;;;;;30.58;47.34;100904.72;5013278;27;69808;-36
2021/11/08 15:02:07;;;;;;;;;;;;;;;30.56;47.60;100912.22;5007878;27;67073;-36
2021/11/08 15:04:46;;;;;;;;;;;;;;;30.54;47.27;100914.34;4993466;27;70310;-36
2021/11/08 15:07:35;;;;;;;;;;;;;;;30.53;47.20;100901.81;4994492;27;65547;-35
2021/11/08 15:10:15;;;;;;;;;;;;;;;30.51;47.46;100920.19;5006500;27;68698;-37
2021/11/08 15:12:52;;;;;;;;;;;;;;;30.48;46.86;100915.22;4994751;27;66055;-36
2021/11/08 15:15:38;;;;;;;;;;;;;;;30.49;46.81;100911.44;4996947;27;69116;-36
2021/11/08 15:18:16;;;;;;;;;;;;;;;30.45;47.00;100916.47;4998811;27;66704;-36
2021/11/08 15:21:16;;;;;;;;;;;;;;;30.45;46.94;100918.31;4997657;27;70297;-36
2021/11/08 15:23:48;;;;;;;;;;;;;;;30.42;47.01;100911.50;4996816;28;66375;-36
2021/11/08 15:26:20;;;;;;;;;;;;;;;30.39;47.23;100916.47;4990860;27;69753;-35
2021/11/08 15:28:54;;;;;;;;;;;;;;;30.36;47.84;100912.31;5035147;27;66588;-36
2021/11/08 15:31:29;;;;;;;;;;;;;;;30.37;47.71;100913.16;5003832;27;70622;-35
2021/11/08 15:34:07;;;;;;;;;;;;;;;30.38;48.14;100904.00;4991539;27;66420;-35
2021/11/08 15:36:46;;;;;;;;;;;;;;;30.38;48.55;100904.84;5026578;27;70418;-35
2021/11/08 15:39:28;;;;;;;;;;;;;;;30.32;49.65;100904.88;4999348;27;66398;-33
2021/11/08 15:42:04;;;;;;;;;;;;;;;30.27;51.06;100906.34;4997107;27;69089;-35
2021/11/08 15:44:40;;;;;;;;;;;;;;;30.20;53.05;100905.53;4990582;27;66245;-35
2021/11/08 15:47:10;;;;;;;;;;;;;;;30.10;54.29;100907.84;5004996;27;70825;-35
2021/11/08 15:49:41;;;;;;;;;;;;;;;30.04;55.02;100900.59;4994743;27;66552;-35